Time;durP1;ratioP1;P1;durP2;ratioP2;P2;SDS_P1;SDS_P2;PMS_P1;PMS_P2;Temp;Humidity;BMP_temperature;BMP_pressure;BME280_temperature;BME280_humidity;BME280_pressure;Samples;Min_cycle;Max_cycle;Signal;HPM_P1;HPM_P2
2024/03/06 00:07:15;;;;;;;1.00;1.00;;;;;;;1.32;70.54;101562.53;15734430;28;20102;-48
2024/03/06 00:14:52;;;;;;;0.30;0.30;;;;;;;1.11;70.87;101564.31;15718442;28;20318;-50
2024/03/06 00:22:25;;;;;;;0.10;0.10;;;;;;;1.00;71.97;101565.22;15702667;28;20052;-47
2024/03/06 00:30:03;;;;;;;0.50;0.47;;;;;;;1.01;72.42;101594.16;15737204;28;20044;-48
2024/03/06 00:37:38;;;;;;;3.25;1.55;;;;;;;1.12;72.01;101581.84;15733511;28;20045;-48
2024/03/06 00:45:16;;;;;;;4.13;1.13;;;;;;;1.20;71.01;101595.28;15744154;28;20053;-50
2024/03/06 00:52:51;;;;;;;0.57;0.57;;;;;;;1.00;72.36;101603.06;15743049;28;20044;-50
2024/03/06 01:00:28;;;;;;;0.20;0.20;;;;;;;0.51;72.76;101608.84;15738365;28;20493;-52
2024/03/06 01:08:02;;;;;;;0.35;0.25;;;;;;;0.79;73.24;101615.38;15738593;28;20051;-51
2024/03/06 01:15:39;;;;;;;7.32;2.70;;;;;;;0.93;72.81;101630.97;15742108;28;20123;-51
2024/03/06 01:23:13;;;;;;;0.40;0.40;;;;;;;0.94;72.54;101631.81;15726007;28;20056;-52
2024/03/06 01:30:52;;;;;;;0.20;0.20;;;;;;;0.99;71.68;101635.75;15706781;28;20040;-50
2024/03/06 01:38:26;;;;;;;0.30;0.30;;;;;;;0.86;71.15;101639.53;15715159;28;20033;-53
2024/03/06 01:46:02;;;;;;;0.32;0.32;;;;;;;0.63;72.94;101644.88;15715531;28;20486;-50
2024/03/06 01:53:36;;;;;;;6.13;1.27;;;;;;;0.58;72.79;101643.56;15693692;28;20037;-51
2024/03/06 02:01:13;;;;;;;0.88;0.88;;;;;;;0.65;72.82;101642.97;15710155;28;20056;-50
2024/03/06 02:08:46;;;;;;;0.05;0.05;;;;;;;0.86;72.03;101647.47;15702550;28;20131;-52
2024/03/06 02:16:23;;;;;;;0.17;0.17;;;;;;;0.59;73.11;101648.72;15716917;28;20457;-49
2024/03/06 02:23:59;;;;;;;0.10;0.10;;;;;;;0.48;73.20;101651.38;15736918;28;20139;-51
2024/03/06 02:31:35;;;;;;;0.63;0.63;;;;;;;0.49;73.37;101647.78;15719267;28;20098;-53
2024/03/06 02:39:12;;;;;;;0.40;0.40;;;;;;;0.66;72.76;101647.28;15738501;28;20048;-51
2024/03/06 02:46:49;;;;;;;1.08;0.85;;;;;;;0.50;72.94;101652.94;15737281;28;20060;-50
2024/03/06 02:54:24;;;;;;;0.00;0.00;;;;;;;0.73;73.36;101656.38;15718257;28;20045;-52
2024/03/06 03:02:00;;;;;;;0.45;0.45;;;;;;;0.81;73.11;101653.13;15717874;28;20090;-51
2024/03/06 03:09:38;;;;;;;1.00;1.00;;;;;;;0.83;73.38;101660.91;15729347;28;20048;-53
2024/03/06 03:17:15;;;;;;;0.03;0.03;;;;;;;0.79;74.22;101672.69;15732431;28;20050;-50
2024/03/06 03:24:51;;;;;;;0.00;0.00;;;;;;;0.66;74.27;101686.91;15756135;28;20051;-51
2024/03/06 03:32:29;;;;;;;1.25;0.80;;;;;;;0.48;73.40;101683.91;15773442;28;20059;-52
2024/03/06 03:40:11;;;;;;;0.32;0.32;;;;;;;0.45;72.86;101688.59;15784451;28;20052;-52
2024/03/06 03:47:45;;;;;;;2.17;0.77;;;;;;;0.55;73.14;101701.91;15760366;28;20071;-50
2024/03/06 03:55:21;;;;;;;0.10;0.10;;;;;;;0.56;73.50;101703.59;15755293;28;20060;-48
2024/03/06 04:02:57;;;;;;;0.45;0.45;;;;;;;0.42;73.53;101707.31;15743075;28;20070;-51
2024/03/06 04:10:32;;;;;;;0.90;0.90;;;;;;;0.24;74.10;101688.50;15737770;28;20040;-50
2024/03/06 04:18:08;;;;;;;0.00;0.00;;;;;;;0.33;73.30;101716.00;15766263;28;20045;-51
2024/03/06 04:25:43;;;;;;;0.57;0.57;;;;;;;0.42;73.12;101715.25;15703399;28;20121;-51
2024/03/06 04:33:17;;;;;;;1.35;1.25;;;;;;;0.14;73.96;101712.13;15718668;28;20044;-52
2024/03/06 04:40:52;;;;;;;0.20;0.20;;;;;;;0.16;73.40;101715.47;15712119;28;20598;-51
2024/03/06 04:48:27;;;;;;;0.03;0.03;;;;;;;0.10;73.27;101723.88;15706974;28;20171;-52
2024/03/06 04:56:06;;;;;;;0.05;0.05;;;;;;;0.15;72.74;101728.81;15720941;28;20124;-50
2024/03/06 05:03:43;;;;;;;0.65;0.65;;;;;;;0.11;73.42;101730.84;15719684;28;20098;-48
2024/03/06 05:11:20;;;;;;;2.38;1.20;;;;;;;-0.03;73.91;101742.44;15708154;28;20045;-52
2024/03/06 05:18:56;;;;;;;0.32;0.32;;;;;;;0.01;73.87;101750.16;15713215;28;20702;-51
2024/03/06 05:26:34;;;;;;;0.22;0.22;;;;;;;-0.01;73.82;101766.06;15785166;28;20071;-53
2024/03/06 05:34:08;;;;;;;0.00;0.00;;;;;;;-0.03;73.78;101774.13;15803878;28;20465;-52
2024/03/06 05:41:43;;;;;;;0.00;0.00;;;;;;;-0.13;73.29;101786.34;15793016;28;20098;-50
2024/03/06 05:49:17;;;;;;;0.38;0.28;;;;;;;-0.08;73.98;101797.38;15774986;28;20424;-50
2024/03/06 05:56:57;;;;;;;0.47;0.47;;;;;;;-0.25;73.26;101803.06;15783666;28;20224;-49
2024/03/06 06:04:32;;;;;;;3.00;0.73;;;;;;;-0.03;73.53;101805.78;15775448;28;20109;-51
2024/03/06 06:12:07;;;;;;;0.40;0.40;;;;;;;0.11;72.83;101819.75;15791499;28;20107;-51
2024/03/06 06:19:46;;;;;;;0.00;0.00;;;;;;;0.09;73.67;101825.13;15762692;28;1088765;-50
2024/03/06 06:27:22;;;;;;;0.60;0.60;;;;;;;0.30;73.30;101835.88;15779672;28;20055;-51
2024/03/06 06:34:56;;;;;;;0.03;0.03;;;;;;;0.59;73.54;101838.91;15727307;28;20460;-54
2024/03/06 06:42:32;;;;;;;0.10;0.10;;;;;;;0.73;73.56;101849.25;15777926;28;20653;-54
2024/03/06 06:50:08;;;;;;;0.50;0.50;;;;;;;0.95;74.67;101855.53;15756498;28;20064;-50
2024/03/06 06:57:45;;;;;;;0.15;0.15;;;;;;;1.33;75.52;101860.44;15772106;28;20044;-49
2024/03/06 07:05:19;;;;;;;0.45;0.45;;;;;;;2.50;74.78;101880.81;15803290;28;20052;-52
2024/03/06 07:12:57;;;;;;;0.10;0.10;;;;;;;4.28;70.00;101876.56;15808665;28;20036;-55
2024/03/06 07:20:31;;;;;;;1.55;0.65;;;;;;;4.35;68.12;101888.34;15765545;28;20093;-51
2024/03/06 07:28:08;;;;;;;1.02;0.75;;;;;;;5.96;63.66;101895.09;15770198;28;20055;-51
2024/03/06 07:35:42;;;;;;;0.77;0.75;;;;;;;5.55;65.63;101909.81;15773673;28;20405;-53
2024/03/06 07:43:18;;;;;;;0.10;0.10;;;;;;;4.39;70.17;101908.34;15739015;28;20045;-51
2024/03/06 07:50:51;;;;;;;0.68;0.68;;;;;;;4.17;71.69;101920.09;15764230;28;20518;-52
2024/03/06 07:58:28;;;;;;;0.20;0.20;;;;;;;5.71;67.94;101930.44;15785791;28;20044;-51
2024/03/06 08:06:02;;;;;;;0.63;0.45;;;;;;;6.68;65.45;101930.56;15749456;28;20051;-50
2024/03/06 08:13:40;;;;;;;1.20;1.05;;;;;;;5.79;66.03;101933.22;15766440;28;20044;-52
2024/03/06 08:21:14;;;;;;;0.68;0.68;;;;;;;7.39;62.80;101948.19;15747064;28;20500;-51
2024/03/06 08:28:48;;;;;;;;;;;;;;;7.51;61.77;101952.28;15765018;28;20036;-51
2024/03/06 08:36:24;;;;;;;0.85;0.85;;;;;;;7.99;60.20;101957.94;15791535;28;20437;-51
2024/03/06 08:43:59;;;;;;;1.80;1.70;;;;;;;8.55;57.04;101962.56;15763100;28;20036;-51
2024/03/06 08:51:34;;;;;;;1.83;1.20;;;;;;;10.07;54.55;101964.28;15773506;28;20105;-49
2024/03/06 08:59:10;;;;;;;2.42;0.68;;;;;;;9.85;54.22;101966.78;15747868;28;20152;-51
2024/03/06 09:06:43;;;;;;;1.95;1.40;;;;;;;10.19;52.76;101963.72;15776330;28;20697;-50
2024/03/06 09:14:18;;;;;;;3.40;1.85;;;;;;;11.15;51.11;101967.66;15803516;28;20373;-51
2024/03/06 09:21:53;;;;;;;0.68;0.60;;;;;;;10.39;51.78;101972.16;15791380;28;20040;-51
2024/03/06 09:29:28;;;;;;;0.15;0.15;;;;;;;10.89;53.29;101977.97;15793723;28;20074;-53
2024/03/06 09:37:02;;;;;;;0.32;0.32;;;;;;;10.52;51.69;101984.16;15794412;28;20048;-52
2024/03/06 09:44:39;;;;;;;0.20;0.20;;;;;;;9.73;51.92;101980.75;15794325;28;20484;-52
2024/03/06 09:52:14;;;;;;;1.08;0.88;;;;;;;11.13;49.83;101993.03;15771783;28;20045;-54
2024/03/06 09:59:49;;;;;;;0.22;0.22;;;;;;;11.41;47.15;101999.44;15771194;28;20096;-54
2024/03/06 10:07:23;;;;;;;4.68;0.43;;;;;;;10.69;48.95;101996.47;15800659;28;20071;-51
2024/03/06 10:14:58;;;;;;;19.20;1.25;;;;;;;10.86;49.25;101997.13;15799436;28;20366;-51
2024/03/06 10:22:33;;;;;;;0.25;0.25;;;;;;;11.69;47.93;102006.88;15847094;22;20530;-51
2024/03/06 10:30:12;;;;;;;0.65;0.55;;;;;;;11.41;47.77;101999.44;15831430;28;20059;-53
2024/03/06 10:37:47;;;;;;;1.55;0.57;;;;;;;12.87;45.64;102003.00;15839888;28;20063;-55
2024/03/06 10:45:27;;;;;;;0.45;0.40;;;;;;;12.60;46.68;101996.56;15858584;28;20628;-51
2024/03/06 10:53:03;;;;;;;0.10;0.10;;;;;;;13.01;43.93;101997.56;15858575;28;20200;-52
2024/03/06 11:00:41;;;;;;;0.35;0.35;;;;;;;13.95;41.99;101996.25;15856695;28;20169;-51
2024/03/06 11:08:22;;;;;;;0.10;0.10;;;;;;;11.23;45.32;101994.44;15854017;28;20055;-51
2024/03/06 11:15:59;;;;;;;0.95;0.77;;;;;;;12.04;45.00;101991.00;15858544;28;20082;-52
2024/03/06 11:23:34;;;;;;;0.20;0.20;;;;;;;9.98;47.12;101990.34;15857199;28;20038;-51
2024/03/06 11:31:13;;;;;;;0.00;0.00;;;;;;;10.72;46.92;101983.50;15838511;28;20667;-52
2024/03/06 11:38:53;;;;;;;0.30;0.30;;;;;;;13.50;42.39;101977.78;15851646;28;20249;-51
2024/03/06 11:46:43;;;;;;;0.10;0.10;;;;;;;11.47;44.73;101979.91;15831837;28;20039;-52
2024/03/06 11:54:17;;;;;;;0.77;0.40;;;;;;;10.00;47.84;101982.13;15839162;28;20108;-53
2024/03/06 12:01:53;;;;;;;1.40;0.70;;;;;;;9.52;48.42;101971.44;15804398;28;20064;-51
2024/03/06 12:09:29;;;;;;;0.25;0.10;;;;;;;13.48;40.48;101969.06;15825026;28;20039;-53
2024/03/06 12:17:05;;;;;;;0.15;0.10;;;;;;;10.46;48.67;101975.00;15854118;28;20039;-54
2024/03/06 12:24:40;;;;;;;0.82;0.60;;;;;;;9.91;49.31;101951.81;15851530;28;20527;-51
2024/03/06 12:32:18;;;;;;;1.17;0.82;;;;;;;12.64;45.97;101977.13;15833882;28;20475;-52
2024/03/06 12:39:53;;;;;;;0.05;0.05;;;;;;;13.68;42.15;101976.41;15847927;28;20101;-51
2024/03/06 12:47:27;;;;;;;0.73;0.73;;;;;;;12.79;42.49;101974.34;15852047;28;20035;-55
2024/03/06 12:55:01;;;;;;;0.77;0.77;;;;;;;11.61;43.38;101972.88;15841918;28;20430;-53
2024/03/06 13:02:36;;;;;;;1.10;0.65;;;;;;;11.79;43.31;101959.00;15805670;28;20441;-51
2024/03/06 13:10:11;;;;;;;0.68;0.68;;;;;;;12.84;41.69;101963.81;15842091;28;20046;-54
2024/03/06 13:17:46;;;;;;;1.17;0.73;;;;;;;12.50;42.75;101965.41;15841496;28;20086;-51
2024/03/06 13:25:20;;;;;;;0.28;0.28;;;;;;;12.10;41.51;101963.31;15767368;28;20135;-53
2024/03/06 13:32:59;;;;;;;0.30;0.30;;;;;;;11.07;45.16;101959.69;15782412;28;20040;-52
2024/03/06 13:40:33;;;;;;;0.65;0.65;;;;;;;11.23;46.00;101961.34;15770600;28;20044;-48
2024/03/06 13:48:16;;;;;;;3.00;1.58;;;;;;;10.67;46.47;101961.72;15791208;28;20040;-52
2024/03/06 13:55:49;;;;;;;0.00;0.00;;;;;;;9.89;48.99;101964.59;15797199;28;20040;-51
2024/03/06 14:03:25;;;;;;;0.47;0.47;;;;;;;10.34;48.09;101960.31;15779742;28;20378;-52
2024/03/06 14:10:59;;;;;;;0.55;0.55;;;;;;;9.43;50.33;101965.28;15795636;28;20048;-50
2024/03/06 14:18:34;;;;;;;0.60;0.60;;;;;;;8.95;51.37;101974.25;15798131;28;20063;-52
2024/03/06 14:26:10;;;;;;;0.70;0.70;;;;;;;9.08;50.56;101961.16;15798402;28;20044;-52
2024/03/06 14:33:46;;;;;;;;;;;;;;;9.32;51.30;101970.97;15794956;28;20040;-50
2024/03/06 14:41:21;;;;;;;2.50;1.55;;;;;;;8.77;51.33;101979.81;15794658;28;19942;-52
2024/03/06 14:48:56;;;;;;;0.45;0.45;;;;;;;8.31;52.14;101981.25;15797905;28;20040;-50
2024/03/06 14:56:30;;;;;;;0.95;0.95;;;;;;;9.00;51.27;101979.94;15792941;28;20036;-52
2024/03/06 15:04:05;;;;;;;0.00;0.00;;;;;;;8.11;52.46;101983.34;15792171;28;20071;-50
2024/03/06 15:11:40;;;;;;;0.10;0.10;;;;;;;7.78;51.79;101993.09;15797208;28;20376;-53
2024/03/06 15:19:18;;;;;;;0.25;0.25;;;;;;;7.49;51.32;101959.59;15788557;28;20064;-53
2024/03/06 15:26:52;;;;;;;0.17;0.17;;;;;;;7.99;50.77;101996.19;15795273;28;20056;-48
2024/03/06 15:34:28;;;;;;;0.80;0.80;;;;;;;7.75;51.96;101996.97;15794759;28;20119;-51
2024/03/06 15:42:01;;;;;;;3.25;2.00;;;;;;;7.81;52.11;101998.97;15794527;28;20049;-53
2024/03/06 15:49:38;;;;;;;0.82;0.75;;;;;;;7.77;53.19;102002.13;15786213;28;20701;-49
2024/03/06 15:57:12;;;;;;;0.00;0.00;;;;;;;7.69;51.47;101989.56;15793565;28;20044;-51
2024/03/06 16:04:46;;;;;;;1.02;0.52;;;;;;;7.45;52.12;102011.66;15793251;28;20040;-52
2024/03/06 16:12:21;;;;;;;4.05;1.00;;;;;;;7.57;52.77;102007.72;15771661;28;20028;-50
2024/03/06 16:19:57;;;;;;;3.10;1.33;;;;;;;8.46;50.74;102008.22;15800752;28;20089;-49
2024/03/06 16:27:30;;;;;;;1.95;1.17;;;;;;;9.09;49.71;102013.75;15820143;28;20495;-49
2024/03/06 16:35:08;;;;;;;0.28;0.28;;;;;;;8.27;51.34;102015.50;15835405;28;20055;-49
2024/03/06 16:42:42;;;;;;;5.18;1.55;;;;;;;8.28;52.88;102032.38;15827441;28;20038;-56
2024/03/06 16:50:17;;;;;;;0.50;0.50;;;;;;;7.89;55.16;102031.09;15789793;28;20040;-52
2024/03/06 16:57:52;;;;;;;0.28;0.25;;;;;;;8.09;55.92;102031.66;15794967;28;20066;-47
2024/03/06 17:05:27;;;;;;;0.70;0.70;;;;;;;8.17;55.98;102038.88;15831955;28;20040;-46
2024/03/06 17:13:05;;;;;;;0.52;0.52;;;;;;;8.02;57.29;102043.16;15810995;28;20032;-49
2024/03/06 17:20:42;;;;;;;0.45;0.45;;;;;;;8.31;57.42;102053.47;15816866;28;20130;-49
2024/03/06 17:28:17;;;;;;;2.38;0.95;;;;;;;8.04;58.81;102057.22;15827109;28;20119;-47
2024/03/06 17:35:56;;;;;;;0.57;0.57;;;;;;;8.19;58.41;102064.44;15767541;28;20349;-52
2024/03/06 17:43:29;;;;;;;0.45;0.45;;;;;;;7.54;60.82;102071.31;15784151;28;20059;-49
2024/03/06 17:51:07;;;;;;;0.60;0.45;;;;;;;8.03;60.00;102075.09;15802939;28;20312;-49
2024/03/06 17:58:41;;;;;;;0.73;0.73;;;;;;;8.41;59.21;102079.09;15839465;28;20123;-49
2024/03/06 18:06:15;;;;;;;0.10;0.10;;;;;;;8.26;59.41;102079.88;15783150;28;20036;-52
2024/03/06 18:13:49;;;;;;;0.98;0.82;;;;;;;7.98;61.22;102079.25;15808506;28;20032;-52
2024/03/06 18:21:24;;;;;;;0.70;0.32;;;;;;;7.76;61.88;102084.16;15855302;28;20043;-51
2024/03/06 18:29:00;;;;;;;0.00;0.00;;;;;;;8.11;61.88;102093.88;15817011;28;20393;-49
2024/03/06 18:36:39;;;;;;;0.25;0.25;;;;;;;7.93;62.45;102090.44;15829798;28;20083;-51
2024/03/06 18:44:13;;;;;;;2.08;1.27;;;;;;;7.89;63.10;102087.22;15811197;28;20048;-50
2024/03/06 18:51:49;;;;;;;0.75;0.45;;;;;;;8.16;62.97;102098.72;15814848;28;20148;-51
2024/03/06 18:59:23;;;;;;;0.15;0.15;;;;;;;7.93;63.39;102101.13;15808587;28;20375;-47
2024/03/06 19:06:58;;;;;;;3.10;1.65;;;;;;;8.10;63.47;102102.03;15808579;28;20118;-50
2024/03/06 19:14:32;;;;;;;0.90;0.90;;;;;;;7.70;65.60;102100.00;15816138;28;20040;-54
2024/03/06 19:22:09;;;;;;;1.77;0.80;;;;;;;7.76;65.51;102110.03;15814862;28;20043;-50
2024/03/06 19:29:46;;;;;;;0.98;0.73;;;;;;;7.01;68.82;102120.34;15819561;28;20405;-50
2024/03/06 19:37:21;;;;;;;;;;;;;;;7.60;68.01;102116.97;15805997;28;20063;-46
2024/03/06 19:44:56;;;;;;;0.63;0.63;;;;;;;6.99;69.93;102123.13;15812173;28;20360;-47
2024/03/06 19:52:31;;;;;;;2.35;1.55;;;;;;;7.54;68.43;102120.25;15792605;28;20056;-46
2024/03/06 20:00:11;;;;;;;0.68;0.68;;;;;;;7.87;67.24;102117.78;15784804;28;20039;-48
2024/03/06 20:07:50;;;;;;;0.30;0.30;;;;;;;7.34;69.14;102122.28;15801627;28;20044;-45
2024/03/06 20:15:26;;;;;;;0.98;0.60;;;;;;;7.53;68.88;102126.59;15781744;28;20106;-45
2024/03/06 20:23:06;;;;;;;;;;;;;;;7.26;70.28;102127.56;15792921;28;20467;-49
2024/03/06 20:30:42;;;;;;;0.85;0.60;;;;;;;7.33;70.92;102125.94;15803774;28;19920;-47
2024/03/06 20:38:17;;;;;;;0.50;0.50;;;;;;;7.26;71.54;102124.03;15814892;28;20094;-47
2024/03/06 20:45:52;;;;;;;0.73;0.73;;;;;;;7.23;71.59;102119.88;15783339;28;20044;-49
2024/03/06 20:53:26;;;;;;;;;;;;;;;7.25;72.58;102117.03;15785596;28;20126;-50
2024/03/06 21:01:00;;;;;;;0.73;0.65;;;;;;;6.78;74.33;102122.59;15792593;28;19959;-51
2024/03/06 21:08:35;;;;;;;0.73;0.40;;;;;;;6.72;74.92;102125.88;15802744;28;20501;-49
2024/03/06 21:16:10;;;;;;;0.70;0.65;;;;;;;6.98;73.93;102132.13;15827785;28;20085;-50
2024/03/06 21:23:47;;;;;;;1.55;1.45;;;;;;;6.81;74.86;102138.34;15796410;28;20040;-52
2024/03/06 21:31:22;;;;;;;0.95;0.82;;;;;;;6.81;74.93;102141.00;15784159;28;20044;-48
2024/03/06 21:38:57;;;;;;;0.85;0.75;;;;;;;6.92;75.05;102134.59;15800924;28;20048;-47
2024/03/06 21:46:32;;;;;;;2.40;2.20;;;;;;;6.58;76.68;102137.91;15801320;28;20473;-49
2024/03/06 21:54:07;;;;;;;2.40;1.40;;;;;;;6.83;76.03;102139.00;15800041;28;20036;-53
2024/03/06 22:01:41;;;;;;;5.10;1.40;;;;;;;6.44;77.74;102144.59;15799685;28;20040;-49
2024/03/06 22:09:16;;;;;;;2.63;1.38;;;;;;;6.55;77.82;102141.72;15799437;28;20044;-50
2024/03/06 22:16:49;;;;;;;0.52;0.52;;;;;;;6.47;78.56;102143.44;15797207;28;20064;-46
2024/03/06 22:24:24;;;;;;;0.50;0.50;;;;;;;6.35;79.34;102150.81;15812631;28;20055;-49
2024/03/06 22:31:59;;;;;;;5.03;2.38;;;;;;;6.71;78.18;102157.03;15819542;28;20140;-50
2024/03/06 22:39:36;;;;;;;13.57;3.35;;;;;;;6.64;77.91;102162.16;15816276;28;20040;-48
2024/03/06 22:47:10;;;;;;;2.25;1.75;;;;;;;6.61;78.72;102151.78;15788619;28;20040;-51
2024/03/06 22:54:46;;;;;;;1.83;1.73;;;;;;;6.52;79.97;102158.00;15795337;28;20048;-50
2024/03/06 23:02:20;;;;;;;3.00;1.23;;;;;;;6.57;79.20;102161.06;15827939;28;20059;-49
2024/03/06 23:09:55;;;;;;;1.98;1.45;;;;;;;6.48;80.41;102161.09;15778689;28;20583;-47
2024/03/06 23:17:31;;;;;;;4.30;2.05;;;;;;;6.55;80.15;102163.03;15812483;28;20358;-49
2024/03/06 23:25:07;;;;;;;4.68;3.40;;;;;;;6.56;81.54;102170.06;15816781;28;20122;-48
2024/03/06 23:32:41;;;;;;;7.47;4.63;;;;;;;6.58;81.29;102165.44;15850457;28;20040;-52
2024/03/06 23:40:17;;;;;;;;;;;;;;;6.99;79.56;102165.00;15800626;28;20050;-51
2024/03/06 23:47:52;;;;;;;0.57;0.55;;;;;;;6.57;81.65;102171.72;15782380;28;19970;-51
2024/03/06 23:55:28;;;;;;;2.55;2.35;;;;;;;6.81;80.54;102170.34;15820355;28;20282;-51
